createdAt,value
2023-04-19T00:01:09.140Z,9.60
2023-04-19T00:06:10.555Z,9.50
2023-04-19T00:11:09.085Z,9.10
2023-04-19T00:16:08.692Z,8.80
2023-04-19T00:21:08.767Z,8.50
2023-04-19T00:26:07.407Z,8.50
2023-04-19T00:31:06.026Z,8.40
2023-04-19T00:36:04.573Z,8.00
2023-04-19T00:42:04.621Z,7.90
2023-04-19T00:47:04.628Z,7.60
2023-04-19T00:52:03.501Z,7.50
2023-04-19T00:57:02.043Z,7.50
2023-04-19T01:02:00.749Z,7.40
2023-04-19T01:07:03.539Z,7.40
2023-04-19T01:12:03.868Z,7.40
2023-04-19T01:17:02.415Z,7.40
2023-04-19T01:22:03.473Z,7.60
2023-04-19T01:27:03.826Z,7.20
2023-04-19T01:32:02.337Z,7.00
2023-04-19T01:37:00.835Z,7.00
2023-04-19T01:41:59.256Z,6.70
2023-04-19T01:46:59.045Z,6.60
2023-04-19T01:51:57.586Z,6.50
2023-04-19T01:56:56.301Z,6.70
2023-04-19T02:01:54.428Z,6.70
2023-04-19T02:06:54.573Z,7.00
2023-04-19T02:11:53.018Z,7.10
2023-04-19T02:16:53.447Z,7.20
2023-04-19T02:21:52.150Z,7.40
2023-04-19T02:26:52.312Z,7.50
2023-04-19T02:31:50.932Z,7.80
2023-04-19T02:36:49.397Z,8.10
2023-04-19T02:41:47.893Z,8.10
2023-04-19T02:46:51.727Z,8.20
2023-04-19T02:51:52.654Z,8.30
2023-04-19T02:56:51.509Z,7.90
2023-04-19T03:01:51.614Z,7.90
2023-04-19T03:06:51.449Z,8.00
2023-04-19T03:11:50.065Z,8.00
2023-04-19T03:16:50.925Z,8.10
2023-04-19T03:21:49.789Z,8.40
2023-04-19T03:26:49.557Z,8.20
2023-04-19T03:31:54.061Z,8.30
2023-04-19T03:36:52.610Z,8.30
2023-04-19T03:41:51.237Z,8.10
2023-04-19T03:46:58.094Z,8.40
2023-04-19T03:52:00.902Z,8.20
2023-04-19T03:56:59.913Z,8.10
2023-04-19T04:02:00.310Z,8.20
2023-04-19T04:06:58.912Z,8.20
2023-04-19T04:11:57.449Z,8.10
2023-04-19T04:16:56.584Z,8.40
2023-04-19T04:21:56.469Z,8.20
2023-04-19T04:26:55.522Z,8.00
2023-04-19T04:31:57.924Z,8.10
2023-04-19T04:37:04.095Z,8.20
2023-04-19T04:42:03.160Z,8.10
2023-04-19T04:47:01.789Z,8.00
2023-04-19T04:52:04.898Z,8.00
2023-04-19T04:57:09.872Z,8.00
2023-04-19T05:02:08.587Z,7.90
2023-04-19T05:07:08.604Z,7.90
2023-04-19T05:12:07.877Z,8.00
2023-04-19T05:17:07.735Z,8.10
2023-04-19T05:22:08.189Z,8.10
2023-04-19T05:27:09.846Z,8.20
2023-04-19T05:32:08.602Z,8.60
2023-04-19T05:37:20.227Z,8.60
2023-04-19T05:42:18.848Z,8.90
2023-04-19T05:47:17.924Z,8.90
2023-04-19T05:52:43.490Z,9.10
2023-04-19T05:57:42.141Z,9.40
2023-04-19T06:02:41.107Z,9.40
2023-04-19T06:07:54.423Z,9.50
2023-04-19T06:12:54.262Z,9.60
2023-04-19T06:17:52.865Z,9.80
2023-04-19T06:22:52.405Z,10.00
2023-04-19T06:27:51.125Z,10.20
2023-04-19T06:32:50.014Z,10.40
2023-04-19T06:37:49.444Z,10.40
2023-04-19T06:42:50.850Z,10.60
2023-04-19T06:47:49.094Z,10.90
2023-04-19T06:52:48.284Z,11.00
2023-04-19T06:57:46.806Z,11.20
2023-04-19T07:02:46.833Z,11.40
2023-04-19T07:07:45.504Z,11.80
2023-04-19T07:12:44.025Z,12.10
2023-04-19T07:17:42.826Z,12.30
2023-04-19T07:22:42.698Z,12.50
2023-04-19T07:27:41.473Z,12.70
2023-04-19T07:32:40.274Z,13.00
2023-04-19T07:37:38.991Z,13.10
2023-04-19T07:42:38.830Z,13.40
2023-04-19T07:47:37.398Z,13.60
2023-04-19T07:52:35.877Z,14.00
2023-04-19T07:57:34.387Z,14.20
2023-04-19T08:02:34.356Z,14.20
2023-04-19T08:07:32.942Z,14.20
2023-04-19T08:12:37.347Z,14.70
2023-04-19T08:17:44.432Z,14.90
2023-04-19T08:22:43.215Z,15.20
2023-04-19T08:27:41.815Z,15.40
2023-04-19T08:32:40.372Z,15.40
2023-04-19T08:37:40.297Z,15.70
2023-04-19T08:42:38.840Z,15.80
2023-04-19T08:47:51.847Z,16.00
2023-04-19T08:53:02.797Z,16.10
2023-04-19T08:58:15.267Z,16.10
2023-04-19T09:03:59.511Z,16.20
2023-04-19T09:14:21.099Z,16.50
2023-04-19T09:19:24.947Z,16.50
2023-04-19T09:29:41.899Z,16.80
2023-04-19T09:34:53.512Z,16.80
2023-04-19T09:39:54.254Z,16.90
2023-04-19T09:50:21.945Z,17.00
2023-04-19T09:55:27.857Z,16.90
2023-04-19T10:00:29.833Z,16.80
2023-04-19T10:05:34.827Z,16.80
2023-04-19T10:10:42.016Z,16.60
2023-04-19T10:15:51.944Z,16.50
2023-04-19T10:20:56.929Z,16.50
2023-04-19T10:25:59.890Z,16.50
2023-04-19T10:31:02.562Z,16.30
2023-04-19T10:36:02.378Z,16.20
2023-04-19T10:41:04.337Z,16.30
2023-04-19T10:46:07.793Z,16.50
2023-04-19T10:51:12.664Z,16.60
2023-04-19T10:56:12.806Z,16.60
2023-04-19T11:01:37.551Z,16.60
2023-04-19T11:06:36.539Z,16.30
2023-04-19T11:11:37.679Z,16.20
2023-04-19T11:16:45.545Z,16.20
2023-04-19T11:21:47.879Z,16.20
2023-04-19T11:26:47.792Z,16.10
2023-04-19T11:31:47.850Z,16.00
2023-04-19T11:37:08.469Z,15.90
2023-04-19T11:42:18.987Z,15.90
2023-04-19T11:47:17.656Z,15.90
2023-04-19T11:52:22.643Z,15.70
2023-04-19T11:57:32.310Z,15.70
2023-04-19T12:02:30.790Z,15.70
2023-04-19T12:07:29.393Z,15.80
2023-04-19T12:12:35.405Z,15.80
2023-04-19T12:17:34.513Z,15.50
2023-04-19T12:22:34.924Z,15.50
2023-04-19T12:27:34.839Z,15.40
2023-04-19T12:32:33.283Z,15.70
2023-04-19T12:37:31.741Z,15.50
2023-04-19T12:42:30.464Z,15.30
2023-04-19T12:47:31.063Z,15.40
2023-04-19T12:52:29.597Z,15.30
2023-04-19T12:57:28.148Z,15.10
2023-04-19T13:02:27.058Z,15.30
2023-04-19T13:07:28.574Z,15.40
2023-04-19T13:12:26.775Z,15.20
2023-04-19T13:17:25.707Z,15.00
2023-04-19T13:22:24.319Z,14.80
2023-04-19T13:27:24.230Z,14.70
2023-04-19T13:32:22.769Z,14.50
2023-04-19T13:37:21.253Z,14.50
2023-04-19T13:42:20.138Z,14.50
2023-04-19T13:47:20.158Z,14.50
2023-04-19T13:52:18.987Z,14.70
2023-04-19T13:57:17.520Z,14.40
2023-04-19T14:02:16.131Z,14.10
2023-04-19T14:07:16.060Z,13.80
2023-04-19T14:12:14.573Z,14.00
2023-04-19T14:17:13.087Z,14.10
2023-04-19T14:22:11.702Z,14.10
2023-04-19T14:27:12.181Z,14.40
2023-04-19T14:32:23.551Z,14.20
2023-04-19T14:37:24.732Z,14.10
2023-04-19T14:42:24.346Z,14.00
2023-04-19T14:47:23.104Z,13.80
2023-04-19T14:52:21.711Z,13.70
2023-04-19T14:57:20.903Z,13.80
2023-04-19T15:02:20.805Z,13.70
2023-04-19T15:07:19.061Z,13.40
2023-04-19T15:12:17.566Z,13.50
2023-04-19T15:17:16.691Z,13.50
2023-04-19T15:22:16.519Z,13.50
2023-04-19T15:27:15.023Z,13.50
2023-04-19T15:32:13.497Z,13.40
2023-04-19T15:37:12.914Z,13.30
2023-04-19T15:42:12.760Z,13.30
2023-04-19T15:47:11.266Z,13.20
2023-04-19T15:52:10.038Z,13.30
2023-04-19T15:57:08.551Z,13.30
2023-04-19T16:02:08.601Z,13.40
2023-04-19T16:07:07.863Z,13.40
2023-04-19T16:12:06.578Z,13.30
2023-04-19T16:17:04.729Z,13.20
2023-04-19T16:22:05.799Z,13.20
2023-04-19T16:27:04.731Z,13.10
2023-04-19T16:32:03.573Z,13.10
2023-04-19T16:37:03.509Z,13.00
2023-04-19T16:42:02.301Z,12.90
2023-04-19T16:47:00.804Z,12.80
2023-04-19T16:51:59.375Z,12.70
2023-04-19T16:56:59.252Z,12.70
2023-04-19T17:02:01.422Z,12.40
2023-04-19T17:07:00.852Z,12.30
2023-04-19T17:12:00.704Z,12.20
2023-04-19T17:16:58.865Z,12.10
2023-04-19T17:21:58.957Z,12.00
2023-04-19T17:26:57.596Z,12.00
2023-04-19T17:31:57.531Z,11.90
2023-04-19T17:36:56.121Z,11.80
2023-04-19T17:41:54.653Z,11.70
2023-04-19T17:46:53.173Z,11.50
2023-04-19T17:51:53.491Z,11.60
2023-04-19T17:56:52.869Z,11.40
2023-04-19T18:01:51.458Z,11.40
2023-04-19T18:06:50.223Z,11.40
2023-04-19T18:11:49.756Z,11.30
2023-04-19T18:16:48.506Z,11.20
2023-04-19T18:21:46.759Z,11.20
2023-04-19T18:26:44.922Z,11.20
2023-04-19T18:31:45.197Z,11.20
2023-04-19T18:36:43.802Z,11.20
2023-04-19T18:41:41.974Z,11.20
2023-04-19T18:46:40.545Z,11.20
2023-04-19T18:51:40.572Z,11.00
2023-04-19T19:01:40.654Z,11.00
2023-04-19T19:06:40.913Z,11.00
2023-04-19T19:11:55.428Z,10.90
2023-04-19T19:16:55.334Z,10.90
2023-04-19T19:21:55.363Z,11.00
2023-04-19T19:26:54.001Z,11.10
2023-04-19T19:31:52.518Z,11.10
2023-04-19T19:36:51.454Z,11.20
2023-04-19T19:42:05.426Z,11.20
2023-04-19T19:47:09.730Z,11.20
2023-04-19T19:52:10.323Z,11.10
2023-04-19T19:58:06.888Z,11.10
2023-04-19T20:02:33.625Z,11.10
2023-04-19T20:07:58.953Z,10.90
2023-04-19T20:12:53.322Z,10.70
2023-04-19T20:17:51.576Z,10.60
2023-04-19T20:22:50.154Z,10.50
2023-04-19T20:27:48.684Z,10.60
2023-04-19T20:32:50.601Z,10.20
2023-04-19T20:37:49.308Z,10.10
2023-04-19T20:42:47.880Z,10.10
2023-04-19T20:47:47.433Z,9.90
2023-04-19T20:52:46.321Z,9.70
2023-04-19T20:57:44.840Z,9.70
2023-04-19T21:02:43.397Z,9.60
2023-04-19T21:07:43.274Z,9.70
2023-04-19T21:12:41.722Z,10.00
2023-04-19T21:17:40.005Z,9.40
2023-04-19T21:22:38.952Z,9.40
2023-04-19T21:27:38.773Z,9.50
2023-04-19T21:32:37.367Z,9.50
2023-04-19T21:37:36.876Z,9.50
2023-04-19T21:42:35.570Z,9.50
2023-04-19T21:47:35.974Z,9.50
2023-04-19T21:52:34.531Z,9.50
2023-04-19T21:57:33.842Z,9.40
2023-04-19T22:02:32.509Z,9.40
2023-04-19T22:07:32.560Z,9.40
2023-04-19T22:12:31.305Z,9.30
2023-04-19T22:17:30.252Z,9.30
2023-04-19T22:22:28.827Z,9.30
2023-04-19T22:27:28.709Z,9.40
2023-04-19T22:32:27.186Z,9.40
2023-04-19T22:37:25.720Z,9.50
2023-04-19T22:42:24.221Z,9.50
2023-04-19T22:47:24.144Z,9.50
2023-04-19T22:52:22.733Z,9.20
2023-04-19T22:57:21.303Z,9.10
2023-04-19T23:02:19.457Z,9.10
2023-04-19T23:07:21.306Z,8.90
2023-04-19T23:12:19.800Z,8.90
2023-04-19T23:17:18.556Z,8.90
2023-04-19T23:22:17.986Z,8.70
2023-04-19T23:27:17.849Z,8.60
2023-04-19T23:32:18.464Z,8.70
2023-04-19T23:37:17.051Z,8.50
2023-04-19T23:42:17.312Z,8.50
2023-04-19T23:47:16.289Z,8.30
2023-04-19T23:52:14.898Z,8.30
2023-04-19T23:57:13.369Z,8.50
